Time;durP1;ratioP1;P1;durP2;ratioP2;P2;SDS_P1;SDS_P2;PMS_P1;PMS_P2;Temp;Humidity;BMP_temperature;BMP_pressure;BME280_temperature;BME280_humidity;BME280_pressure;Samples;Min_cycle;Max_cycle;Signal;HPM_P1;HPM_P2
2023/05/30 04:01:30;;;;;;;0.60;0.10;;;14.00;1.00;;;;;;5569887;23;20494;-74
2023/05/30 04:03:58;;;;;;;0.60;0.20;;;14.00;1.00;;;;;;4956886;28;20551;-73
2023/05/30 04:06:26;;;;;;;0.60;0.10;;;13.90;1.00;;;;;;4957343;29;20816;-72
2023/05/30 04:08:54;;;;;;;3.63;0.80;;;13.90;1.00;;;;;;4956918;28;20532;-71
2023/05/30 04:11:22;;;;;;;0.70;0.20;;;13.90;1.00;;;;;;4949414;28;20895;-71
2023/05/30 04:13:50;;;;;;;0.60;0.10;;;13.90;1.00;;;;;;4937471;29;20533;-72
2023/05/30 04:16:18;;;;;;;0.60;0.17;;;13.90;1.00;;;;;;4984817;23;20564;-74
2023/05/30 04:18:47;;;;;;;0.60;0.10;;;13.90;1.00;;;;;;4976173;28;20444;-75
2023/05/30 04:21:15;;;;;;;0.70;0.27;;;13.90;1.00;;;;;;4975383;28;20546;-74
2023/05/30 04:23:43;;;;;;;0.87;0.40;;;13.90;1.00;;;;;;4975122;28;20532;-73
2023/05/30 04:26:11;;;;;;;0.60;0.10;;;13.90;1.00;;;;;;4962261;28;20514;-74
2023/05/30 04:28:41;;;;;;;0.60;0.10;;;13.90;1.00;;;;;;4955778;28;20915;-73
2023/05/30 04:31:10;;;;;;;0.60;0.10;;;14.00;1.00;;;;;;4953081;29;20958;-74
2023/05/30 04:33:50;;;;;;;0.60;0.10;;;14.00;1.00;;;;;;4956474;29;20445;-74
2023/05/30 04:36:19;;;;;;;0.60;0.10;;;;;;;;;;4954122;29;20911;-74
2023/05/30 04:38:48;;;;;;;0.90;0.30;;;14.00;1.00;;;;;;4955679;28;20479;-75
2023/05/30 04:41:18;;;;;;;1.00;0.73;;;13.90;1.00;;;;;;4956086;28;20884;-74
2023/05/30 04:43:52;;;;;;;0.60;0.10;;;13.90;1.00;;;;;;4956442;29;20465;-74
2023/05/30 04:46:21;;;;;;;0.60;0.10;;;14.00;1.00;;;;;;4955950;28;20469;-74
2023/05/30 04:48:53;;;;;;;0.60;0.10;;;14.00;1.00;;;;;;4956554;28;20482;-75
2023/05/30 04:51:21;;;;;;;0.60;0.10;;;14.00;1.00;;;;;;4956087;28;20499;-74
2023/05/30 04:53:50;;;;;;;0.60;0.20;;;14.00;1.00;;;;;;4956669;29;20460;-75
2023/05/30 04:56:19;;;;;;;0.60;0.10;;;13.90;1.00;;;;;;4956043;28;20473;-74
2023/05/30 04:58:49;;;;;;;0.60;0.10;;;13.80;1.00;;;;;;4956175;28;20446;-74
2023/05/30 05:01:18;;;;;;;0.60;0.10;;;13.80;1.00;;;;;;4953477;28;20549;-74
2023/05/30 05:03:46;;;;;;;0.60;0.10;;;13.80;1.00;;;;;;4954025;29;20533;-74
2023/05/30 05:06:16;;;;;;;0.60;0.10;;;13.80;1.00;;;;;;4953466;28;20468;-74
2023/05/30 05:08:44;;;;;;;2.73;2.53;;;13.80;1.00;;;;;;4954988;29;20544;-74
2023/05/30 05:11:12;;;;;;;1.90;1.80;;;13.90;1.00;;;;;;4955990;28;20459;-75
2023/05/30 05:13:40;;;;;;;0.60;0.10;;;13.80;1.00;;;;;;4968589;28;20441;-75
2023/05/30 05:16:08;;;;;;;0.60;0.20;;;13.90;1.00;;;;;;4955357;28;20540;-76
2023/05/30 05:18:36;;;;;;;0.60;0.10;;;13.90;1.00;;;;;;4955835;29;20543;-75
2023/05/30 05:21:06;;;;;;;0.60;0.20;;;;;;;;;;4955473;28;20483;-74
2023/05/30 05:23:36;;;;;;;2.60;0.60;;;13.80;1.00;;;;;;4955627;28;20443;-76
2023/05/30 05:26:03;;;;;;;0.60;0.50;;;13.80;1.00;;;;;;4955549;29;20473;-76
2023/05/30 05:28:31;;;;;;;0.60;0.20;;;13.70;1.00;;;;;;4955048;29;21024;-75
2023/05/30 05:30:59;;;;;;;0.60;0.20;;;13.70;1.00;;;;;;4955200;28;21083;-76
2023/05/30 05:33:27;;;;;;;12.17;0.57;;;13.70;1.00;;;;;;4952073;28;20463;-77
2023/05/30 05:35:55;;;;;;;0.60;0.20;;;;;;;;;;4954402;28;21048;-76
2023/05/30 05:38:23;;;;;;;1.47;0.50;;;13.60;1.00;;;;;;4955089;28;20954;-75
2023/05/30 05:40:52;;;;;;;0.60;0.20;;;13.60;1.00;;;;;;4956201;28;20540;-76
2023/05/30 05:43:20;;;;;;;0.60;0.17;;;13.60;1.00;;;;;;4954932;28;20450;-76
2023/05/30 05:45:51;;;;;;;0.60;0.20;;;;;;;;;;4955266;28;20580;-76
2023/05/30 05:48:19;;;;;;;0.60;0.10;;;13.80;1.00;;;;;;4957588;28;20454;-75
2023/05/30 05:50:47;;;;;;;0.60;0.10;;;13.90;1.00;;;;;;4973230;28;20491;-75
2023/05/30 05:53:15;;;;;;;0.60;0.20;;;14.00;1.00;;;;;;4974374;28;20524;-76
2023/05/30 05:55:44;;;;;;;0.60;0.10;;;13.90;1.00;;;;;;4975200;28;20536;-75
2023/05/30 05:58:14;;;;;;;4.97;0.47;;;;;;;;;;4960391;28;20448;-75
2023/05/30 06:00:42;;;;;;;0.60;0.10;;;14.00;1.00;;;;;;4954923;29;20531;-76
2023/05/30 06:03:10;;;;;;;0.60;0.20;;;14.00;1.00;;;;;;4954695;28;20546;-75
2023/05/30 06:05:38;;;;;;;0.60;0.20;;;14.20;1.00;;;;;;4954300;29;20478;-75
2023/05/30 06:08:06;;;;;;;0.70;0.30;;;16.10;1.00;;;;;;4953761;28;20457;-75
2023/05/30 06:10:34;;;;;;;0.90;0.73;;;14.20;1.00;;;;;;4954239;29;20591;-75
2023/05/30 06:13:01;;;;;;;1.90;0.40;;;14.10;1.00;;;;;;4954687;29;20499;-74
2023/05/30 06:15:31;;;;;;;0.60;0.20;;;14.00;1.00;;;;;;4954195;28;20485;-75
2023/05/30 06:17:59;;;;;;;1.33;0.57;;;14.00;1.00;;;;;;4954772;29;20543;-74
2023/05/30 06:20:27;;;;;;;0.60;0.10;;;13.90;1.00;;;;;;4954407;28;20456;-76
2023/05/30 06:22:54;;;;;;;0.60;0.20;;;14.00;1.00;;;;;;4954622;28;20454;-76
2023/05/30 06:25:22;;;;;;;0.60;0.20;;;14.20;1.00;;;;;;4954464;29;20470;-75
2023/05/30 06:27:50;;;;;;;0.97;0.57;;;14.20;1.00;;;;;;4954518;29;20454;-74
2023/05/30 06:30:18;;;;;;;0.60;0.10;;;14.20;1.00;;;;;;4954424;29;20572;-75
2023/05/30 06:32:48;;;;;;;0.60;0.13;;;;;;;;;;4954786;28;20450;-75
2023/05/30 06:35:16;;;;;;;2.40;2.30;;;14.50;1.00;;;;;;4954919;29;20472;-75
2023/05/30 06:37:44;;;;;;;0.60;0.10;;;14.50;1.00;;;;;;4955232;29;20547;-75
2023/05/30 06:40:12;;;;;;;0.60;0.20;;;14.70;1.00;;;;;;4954734;28;20454;-75
2023/05/30 06:42:40;;;;;;;0.60;0.10;;;14.80;1.00;;;;;;4953846;28;21007;-75
2023/05/30 06:45:09;;;;;;;0.60;0.10;;;14.90;1.00;;;;;;4953794;28;20566;-75
2023/05/30 06:47:37;;;;;;;0.60;0.10;;;14.90;1.00;;;;;;4953901;28;20461;-75
2023/05/30 06:50:08;;;;;;;0.60;0.10;;;15.00;1.00;;;;;;4953882;28;20485;-75
2023/05/30 06:52:36;;;;;;;1.00;0.87;;;15.00;1.00;;;;;;4954210;28;20969;-75
2023/05/30 06:55:04;;;;;;;0.60;0.10;;;15.10;1.00;;;;;;4954298;29;20474;-75
2023/05/30 06:57:32;;;;;;;0.60;0.10;;;;;;;;;;4954536;29;20994;-75
2023/05/30 07:00:00;;;;;;;0.60;0.10;;;15.20;1.00;;;;;;4953944;29;20527;-76
2023/05/30 07:02:28;;;;;;;0.60;0.10;;;15.20;1.00;;;;;;4953867;28;20455;-76
2023/05/30 07:04:56;;;;;;;0.60;0.10;;;15.20;1.00;;;;;;4953963;28;20893;-76
2023/05/30 07:07:25;;;;;;;0.60;0.10;;;15.30;1.00;;;;;;4952937;29;20546;-76
2023/05/30 07:09:53;;;;;;;0.60;0.10;;;15.40;1.00;;;;;;4953377;29;21070;-76
2023/05/30 07:12:21;;;;;;;0.60;0.20;;;15.40;1.00;;;;;;4953741;29;20482;-75
2023/05/30 07:14:52;;;;;;;1.03;0.20;;;15.60;1.00;;;;;;4953553;28;20484;-75
2023/05/30 07:17:20;;;;;;;0.60;0.13;;;15.60;1.00;;;;;;4953903;29;21015;-75
2023/05/30 07:19:48;;;;;;;0.60;0.10;;;15.70;1.00;;;;;;4955834;28;20459;-75
2023/05/30 07:22:16;;;;;;;0.60;0.10;;;15.80;1.00;;;;;;4962282;28;20440;-75
2023/05/30 07:24:45;;;;;;;0.80;0.20;;;15.80;1.00;;;;;;4966427;28;20448;-76
2023/05/30 07:27:14;;;;;;;0.60;0.10;;;15.80;1.00;;;;;;4966690;28;20474;-75
2023/05/30 07:29:42;;;;;;;0.60;0.20;;;15.80;1.00;;;;;;4967606;28;20540;-76
2023/05/30 07:32:12;;;;;;;1.20;0.43;;;15.80;1.00;;;;;;4966399;28;20479;-75
2023/05/30 07:34:41;;;;;;;1.23;0.20;;;15.80;1.00;;;;;;4965556;28;20443;-75
2023/05/30 07:37:09;;;;;;;0.60;0.17;;;15.90;1.00;;;;;;4967071;28;20503;-76
2023/05/30 07:39:37;;;;;;;0.60;0.20;;;15.90;1.00;;;;;;4967574;28;20786;-75
2023/05/30 07:42:07;;;;;;;0.70;0.40;;;16.00;1.00;;;;;;4966165;28;20472;-75
2023/05/30 07:44:35;;;;;;;0.60;0.10;;;16.10;1.00;;;;;;4967346;28;20468;-75
2023/05/30 07:47:03;;;;;;;0.60;0.10;;;16.20;1.00;;;;;;4968363;28;20453;-75
2023/05/30 07:49:31;;;;;;;0.60;0.10;;;16.30;1.00;;;;;;4959558;28;20514;-75
2023/05/30 07:51:59;;;;;;;0.60;0.10;;;16.30;1.00;;;;;;4967257;28;20484;-75
2023/05/30 07:54:27;;;;;;;0.60;0.10;;;16.40;1.00;;;;;;4964294;28;20542;-75
2023/05/30 07:56:55;;;;;;;0.60;0.20;;;16.50;1.00;;;;;;4965136;28;20557;-75
2023/05/30 07:59:24;;;;;;;0.60;0.10;;;16.60;1.00;;;;;;4967693;28;20926;-75
2023/05/30 08:01:52;;;;;;;0.60;0.10;;;16.80;1.00;;;;;;4964900;28;20891;-74
2023/05/30 08:04:19;;;;;;;0.60;0.20;;;16.70;1.00;;;;;;4956837;29;20493;-75
2023/05/30 08:06:47;;;;;;;2.40;0.50;;;16.60;1.00;;;;;;4956857;28;20482;-73
2023/05/30 08:09:16;;;;;;;0.60;0.13;;;16.60;1.00;;;;;;4956491;28;20457;-74
2023/05/30 08:11:44;;;;;;;0.80;0.50;;;16.60;1.00;;;;;;4957073;29;20480;-74
2023/05/30 08:14:11;;;;;;;0.60;0.20;;;16.50;1.00;;;;;;4953760;28;20462;-75
2023/05/30 08:16:41;;;;;;;0.60;0.10;;;16.60;1.00;;;;;;4956744;28;20478;-75
2023/05/30 08:19:09;;;;;;;1.83;0.20;;;16.70;1.00;;;;;;4957451;28;20515;-74
2023/05/30 08:21:37;;;;;;;0.60;0.10;;;16.80;1.00;;;;;;4961952;28;20528;-74
2023/05/30 08:24:07;;;;;;;0.60;0.10;;;16.90;1.00;;;;;;4963982;29;20463;-74
2023/05/30 08:26:35;;;;;;;0.70;0.40;;;16.90;1.00;;;;;;4962343;28;20485;-74
2023/05/30 08:29:04;;;;;;;0.60;0.10;;;16.90;1.00;;;;;;4961088;29;20443;-74
2023/05/30 08:31:32;;;;;;;0.60;0.20;;;17.00;1.00;;;;;;4960601;28;20568;-74
2023/05/30 08:34:02;;;;;;;0.60;0.20;;;16.90;1.00;;;;;;4962130;28;20500;-74
2023/05/30 08:36:31;;;;;;;0.70;0.30;;;17.10;1.00;;;;;;4961263;28;20550;-74
2023/05/30 08:39:01;;;;;;;0.60;0.17;;;17.20;1.00;;;;;;4959882;28;20479;-74
2023/05/30 08:41:42;;;;;;;0.80;0.30;;;17.20;1.00;;;;;;4961161;29;20461;-74
2023/05/30 08:44:09;;;;;;;0.60;0.10;;;17.30;1.00;;;;;;4959664;29;20451;-74
2023/05/30 08:46:42;;;;;;;0.60;0.40;;;17.30;1.00;;;;;;4959926;28;20542;-74
2023/05/30 08:49:14;;;;;;;0.60;0.20;;;17.40;1.00;;;;;;4956671;29;20455;-74
2023/05/30 08:51:44;;;;;;;0.80;0.20;;;17.50;1.00;;;;;;4956538;29;20492;-74
2023/05/30 08:54:18;;;;;;;0.60;0.10;;;17.60;1.00;;;;;;4959366;29;20451;-74
2023/05/30 08:56:50;;;;;;;0.60;0.10;;;17.60;1.00;;;;;;4956792;29;20467;-74
2023/05/30 08:59:20;;;;;;;0.60;0.20;;;17.60;1.00;;;;;;4957770;29;20457;-75
2023/05/30 09:01:51;;;;;;;2.13;0.40;;;17.70;1.00;;;;;;4956119;29;20454;-75
2023/05/30 09:04:24;;;;;;;1.13;0.20;;;17.80;1.00;;;;;;4956898;29;20465;-74
2023/05/30 09:06:56;;;;;;;0.60;0.10;;;17.80;1.00;;;;;;4957314;28;20530;-74
2023/05/30 09:09:25;;;;;;;0.60;0.50;;;17.90;1.00;;;;;;4957383;28;20565;-74
2023/05/30 09:11:54;;;;;;;0.60;0.10;;;17.90;1.00;;;;;;4956270;29;20517;-74
2023/05/30 09:14:22;;;;;;;0.60;0.20;;;18.00;1.00;;;;;;4955342;29;20539;-74
2023/05/30 09:16:50;;;;;;;0.60;0.20;;;;;;;;;;4955243;28;20577;-74
2023/05/30 09:19:19;;;;;;;0.60;0.20;;;18.10;1.00;;;;;;4955156;29;20963;-73
2023/05/30 09:21:49;;;;;;;0.60;0.10;;;18.10;1.00;;;;;;4955623;29;20814;-74
2023/05/30 09:24:17;;;;;;;0.60;0.20;;;18.20;1.00;;;;;;4955435;29;20457;-73
2023/05/30 09:26:58;;;;;;;0.60;0.10;;;18.20;1.00;;;;;;4954824;28;20515;-74
2023/05/30 09:29:27;;;;;;;0.60;0.10;;;18.40;1.00;;;;;;4964515;28;20441;-73
2023/05/30 09:31:56;;;;;;;0.60;0.10;;;18.50;1.00;;;;;;4957560;28;20577;-74
2023/05/30 09:34:24;;;;;;;0.83;0.83;;;18.50;1.00;;;;;;4965005;28;20545;-75
2023/05/30 09:36:57;;;;;;;0.60;0.20;;;18.50;1.00;;;;;;4974387;28;20473;-75
2023/05/30 09:39:27;;;;;;;0.60;0.20;;;18.60;1.00;;;;;;4962499;28;20458;-74
2023/05/30 09:41:57;;;;;;;0.70;0.40;;;18.70;1.00;;;;;;4954468;28;20497;-75
2023/05/30 09:44:25;;;;;;;0.60;0.20;;;18.60;1.00;;;;;;4953957;29;20483;-76
2023/05/30 09:46:57;;;;;;;0.70;0.60;;;18.60;1.00;;;;;;4954444;28;21078;-75
2023/05/30 09:49:28;;;;;;;0.60;0.10;;;18.70;1.00;;;;;;4954947;28;20946;-74
2023/05/30 09:51:57;;;;;;;4.20;0.40;;;18.90;1.00;;;;;;4954426;29;21003;-75
2023/05/30 09:54:25;;;;;;;0.70;0.40;;;19.00;1.00;;;;;;4954444;28;20778;-74
2023/05/30 09:56:53;;;;;;;0.60;0.10;;;19.00;1.00;;;;;;4954589;29;20538;-75
2023/05/30 09:59:23;;;;;;;0.60;0.20;;;19.10;1.00;;;;;;4954205;28;20485;-74
2023/05/30 10:01:51;;;;;;;0.60;0.10;;;19.20;1.00;;;;;;4954850;29;20538;-74
2023/05/30 10:04:22;;;;;;;0.60;0.20;;;19.20;1.00;;;;;;4954351;29;20550;-74
2023/05/30 10:06:52;;;;;;;0.60;0.10;;;19.30;1.00;;;;;;4957151;28;20538;-74
2023/05/30 10:09:22;;;;;;;0.60;0.30;;;19.40;1.00;;;;;;4961891;28;20458;-74
2023/05/30 10:11:51;;;;;;;0.60;0.10;;;19.50;1.00;;;;;;4964530;28;20832;-74
2023/05/30 10:14:27;;;;;;;0.60;0.10;;;19.60;1.00;;;;;;5089265;28;21040;-74
2023/05/30 10:17:01;;;;;;;0.60;0.20;;;19.70;1.00;;;;;;5067418;28;20540;-76
2023/05/30 10:19:33;;;;;;;0.60;0.20;;;19.70;1.00;;;;;;5068248;28;20494;-75
2023/05/30 10:22:07;;;;;;;0.60;0.10;;;19.80;1.00;;;;;;5069489;28;20452;-75
2023/05/30 10:24:36;;;;;;;0.60;0.20;;;19.80;1.00;;;;;;5069423;28;20610;-76
2023/05/30 10:27:04;;;;;;;0.60;0.10;;;19.90;1.00;;;;;;5069490;28;20445;-75
2023/05/30 10:29:42;;;;;;;1.43;0.63;;;19.90;1.00;;;;;;5070107;28;20887;-75
2023/05/30 10:32:12;;;;;;;0.60;0.20;;;19.90;1.00;;;;;;5069545;28;20440;-75
2023/05/30 10:34:46;;;;;;;1.10;0.43;;;20.00;1.00;;;;;;5068100;28;20543;-75
2023/05/30 10:37:15;;;;;;;0.60;0.10;;;20.00;1.00;;;;;;5070201;28;20445;-75
2023/05/30 10:39:58;;;;;;;0.70;0.50;;;20.10;1.00;;;;;;5070522;28;20556;-75
2023/05/30 10:42:31;;;;;;;1.00;0.40;;;20.20;1.00;;;;;;5069642;28;20962;-76
2023/05/30 10:45:11;;;;;;;0.60;0.10;;;20.20;1.00;;;;;;5069164;28;20481;-76
2023/05/30 10:47:49;;;;;;;0.60;0.10;;;20.20;1.00;;;;;;5062911;28;20496;-76
2023/05/30 10:50:24;;;;;;;0.60;0.20;;;20.20;1.00;;;;;;5049866;28;20454;-75
2023/05/30 10:52:54;;;;;;;0.70;0.27;;;20.20;1.00;;;;;;5049845;28;20442;-76
2023/05/30 10:55:23;;;;;;;0.60;0.10;;;20.30;1.00;;;;;;5049054;28;20462;-75
2023/05/30 10:57:51;;;;;;;0.80;0.40;;;20.30;1.00;;;;;;5068505;28;20446;-75
2023/05/30 11:00:23;;;;;;;0.80;0.80;;;20.40;1.00;;;;;;5071895;28;20438;-75
2023/05/30 11:02:52;;;;;;;2.00;0.87;;;20.30;1.00;;;;;;5069537;28;20963;-75
2023/05/30 11:05:24;;;;;;;0.70;0.37;;;20.40;1.00;;;;;;5070144;28;20961;-75
2023/05/30 11:07:52;;;;;;;0.60;0.20;;;20.40;1.00;;;;;;5070397;28;20823;-75
2023/05/30 11:10:27;;;;;;;0.60;0.10;;;20.60;1.00;;;;;;5070395;28;20467;-75
2023/05/30 11:13:08;;;;;;;0.60;0.20;;;20.60;1.00;;;;;;5069649;28;20535;-75
2023/05/30 11:15:44;;;;;;;0.60;0.10;;;20.60;1.00;;;;;;5069619;28;20519;-76
2023/05/30 11:18:16;;;;;;;1.00;0.50;;;20.60;1.00;;;;;;5070095;28;20473;-76
2023/05/30 11:20:51;;;;;;;0.60;0.20;;;20.70;1.00;;;;;;5069014;28;20982;-75
2023/05/30 11:23:20;;;;;;;0.70;0.30;;;20.60;1.00;;;;;;5070303;28;20481;-76
2023/05/30 11:25:48;;;;;;;0.60;0.20;;;20.60;1.00;;;;;;5056335;28;20463;-75
2023/05/30 11:28:18;;;;;;;2.50;2.40;;;20.60;1.00;;;;;;5054469;28;20862;-75
2023/05/30 11:30:50;;;;;;;0.80;0.50;;;20.70;1.00;;;;;;5055970;28;20470;-75
2023/05/30 11:33:18;;;;;;;0.60;0.10;;;20.70;1.00;;;;;;5054370;28;20495;-76
2023/05/30 11:35:48;;;;;;;0.60;0.20;;;20.90;1.00;;;;;;5054535;28;20462;-75
2023/05/30 11:38:19;;;;;;;0.60;0.20;;;21.00;1.00;;;;;;5054753;28;20446;-76
2023/05/30 11:40:47;;;;;;;0.60;0.20;;;20.90;1.00;;;;;;5054748;28;20828;-75
2023/05/30 11:43:17;;;;;;;1.90;0.40;;;20.90;1.00;;;;;;5054786;28;20979;-74
2023/05/30 11:45:46;;;;;;;0.60;0.10;;;20.90;1.00;;;;;;5055297;28;20565;-75
2023/05/30 11:48:15;;;;;;;0.70;0.30;;;21.00;1.00;;;;;;5055170;28;20477;-75
2023/05/30 11:50:44;;;;;;;0.80;0.43;;;21.00;1.00;;;;;;5054861;28;20452;-75
2023/05/30 11:53:13;;;;;;;0.73;0.53;;;21.20;1.00;;;;;;5053908;28;20447;-75
2023/05/30 11:55:44;;;;;;;0.60;0.20;;;21.30;1.00;;;;;;5054540;28;20514;-75
2023/05/30 11:58:13;;;;;;;0.60;0.10;;;21.40;1.00;;;;;;5054744;28;20526;-74
2023/05/30 12:00:42;;;;;;;0.77;0.30;;;21.40;1.00;;;;;;5054713;28;20438;-75
2023/05/30 12:03:16;;;;;;;0.60;0.20;;;21.40;1.00;;;;;;5054604;28;20529;-75
2023/05/30 12:05:46;;;;;;;0.60;0.20;;;21.40;1.00;;;;;;5054709;28;20491;-75
2023/05/30 12:08:16;;;;;;;0.60;0.10;;;21.40;1.00;;;;;;5055400;28;20856;-76
2023/05/30 12:10:44;;;;;;;0.60;0.10;;;21.60;1.00;;;;;;5054542;28;20452;-75
2023/05/30 12:13:13;;;;;;;0.60;0.20;;;21.50;1.00;;;;;;5054780;28;20462;-75
2023/05/30 12:15:41;;;;;;;0.60;0.20;;;21.50;1.00;;;;;;5055066;28;20506;-75
2023/05/30 12:18:10;;;;;;;0.70;0.20;;;21.50;1.00;;;;;;5054516;28;20447;-76
2023/05/30 12:20:43;;;;;;;0.60;0.20;;;21.60;1.00;;;;;;5054528;28;20455;-75
2023/05/30 12:23:13;;;;;;;0.60;0.20;;;21.60;1.00;;;;;;5053286;28;20504;-75
2023/05/30 12:25:49;;;;;;;0.60;0.20;;;21.60;1.00;;;;;;5054755;28;20463;-75
2023/05/30 12:28:17;;;;;;;0.60;0.20;;;21.60;1.00;;;;;;5054642;28;20537;-75
2023/05/30 12:30:46;;;;;;;0.60;0.10;;;21.50;1.00;;;;;;5056040;28;20459;-76
2023/05/30 12:33:14;;;;;;;0.60;0.20;;;21.50;1.00;;;;;;5056007;28;20464;-76
2023/05/30 12:35:42;;;;;;;0.60;0.10;;;21.60;1.00;;;;;;5053970;28;20473;-76
2023/05/30 12:38:15;;;;;;;1.73;1.07;;;21.70;1.00;;;;;;5055021;28;20439;-76
2023/05/30 12:40:46;;;;;;;0.70;0.30;;;21.70;1.00;;;;;;5055093;28;20447;-76
2023/05/30 12:43:15;;;;;;;0.60;0.20;;;21.80;1.00;;;;;;5054217;28;20545;-76
2023/05/30 12:45:44;;;;;;;0.60;0.10;;;21.90;1.00;;;;;;5054491;28;20522;-76
2023/05/30 12:48:12;;;;;;;0.60;0.10;;;21.90;1.00;;;;;;5054826;28;20452;-76
2023/05/30 12:50:40;;;;;;;1.53;0.53;;;21.80;1.00;;;;;;5055036;28;20513;-75
2023/05/30 12:53:08;;;;;;;0.70;0.20;;;21.80;1.00;;;;;;5057919;28;20534;-76
2023/05/30 12:55:38;;;;;;;0.60;0.20;;;21.70;1.00;;;;;;5054611;28;20878;-76
2023/05/30 12:58:06;;;;;;;3.43;1.90;;;21.70;1.00;;;;;;5053600;28;20473;-75
2023/05/30 13:00:34;;;;;;;0.60;0.10;;;21.80;1.00;;;;;;5054208;28;20445;-75
2023/05/30 13:03:05;;;;;;;0.70;0.37;;;21.90;1.00;;;;;;5055195;28;20450;-76
2023/05/30 13:05:33;;;;;;;0.60;0.20;;;21.90;1.00;;;;;;5054157;28;20482;-75
2023/05/30 13:08:01;;;;;;;0.67;0.30;;;21.80;1.00;;;;;;5053574;28;20474;-76
2023/05/30 13:10:29;;;;;;;0.60;0.10;;;21.80;1.00;;;;;;5052984;28;20962;-76
2023/05/30 13:12:58;;;;;;;0.60;0.13;;;21.90;1.00;;;;;;5053981;28;20456;-76
2023/05/30 13:15:26;;;;;;;0.60;0.10;;;22.00;1.00;;;;;;5053773;28;20462;-75
2023/05/30 13:17:54;;;;;;;0.70;0.40;;;22.00;1.00;;;;;;5054076;28;20444;-77
2023/05/30 13:20:22;;;;;;;0.80;0.53;;;22.00;1.00;;;;;;5053845;28;20497;-76
2023/05/30 13:22:50;;;;;;;0.60;0.10;;;;;;;;;;5048176;28;20456;-76
2023/05/30 13:25:18;;;;;;;0.90;0.33;;;22.00;1.00;;;;;;5054047;28;20487;-77
2023/05/30 13:27:50;;;;;;;0.70;0.30;;;21.90;1.00;;;;;;5054827;28;20868;-76
2023/05/30 13:30:19;;;;;;;0.60;0.13;;;21.90;1.00;;;;;;5053589;28;20787;-77
2023/05/30 13:32:48;;;;;;;0.60;0.17;;;21.90;1.00;;;;;;5051545;28;20500;-76
2023/05/30 13:35:16;;;;;;;0.70;0.40;;;22.00;1.00;;;;;;5053132;28;20468;-77
2023/05/30 13:37:44;;;;;;;0.60;0.23;;;22.00;1.00;;;;;;5054288;28;20475;-75
2023/05/30 13:40:12;;;;;;;0.60;0.20;;;22.10;1.00;;;;;;5053518;28;20455;-77
2023/05/30 13:42:40;;;;;;;0.60;0.20;;;22.20;1.00;;;;;;5053745;28;20444;-75
2023/05/30 13:45:09;;;;;;;0.70;0.40;;;22.10;1.00;;;;;;5054392;28;21055;-75
2023/05/30 13:47:38;;;;;;;0.60;0.10;;;22.20;1.00;;;;;;5054657;28;20479;-76
2023/05/30 13:50:07;;;;;;;4.10;0.93;;;22.20;1.00;;;;;;5054470;28;20443;-75
2023/05/30 13:52:35;;;;;;;0.60;0.20;;;22.20;1.00;;;;;;5054378;28;20442;-75
2023/05/30 13:55:03;;;;;;;0.70;0.30;;;22.50;1.00;;;;;;5055450;28;20505;-76
2023/05/30 13:57:31;;;;;;;0.60;0.20;;;;;;;;;;5052649;28;20452;-76
2023/05/30 14:00:00;;;;;;;0.60;0.10;;;;;;;;;;5052962;28;20541;-75
2023/05/30 14:02:27;;;;;;;4.53;0.67;;;22.50;1.00;;;;;;5054343;28;20456;-76
2023/05/30 14:04:57;;;;;;;0.60;0.10;;;22.60;1.00;;;;;;5054533;28;20532;-75
2023/05/30 14:07:25;;;;;;;0.90;0.20;;;22.70;1.00;;;;;;5053859;28;20454;-75
2023/05/30 14:09:55;;;;;;;0.60;0.10;;;22.70;1.00;;;;;;5054570;28;20447;-74
2023/05/30 14:12:23;;;;;;;0.70;0.20;;;22.80;1.00;;;;;;5051824;28;20458;-76
2023/05/30 14:14:51;;;;;;;0.80;0.20;;;23.00;1.00;;;;;;5034918;28;20441;-76
2023/05/30 14:17:18;;;;;;;0.70;0.30;;;23.00;1.00;;;;;;5045023;28;20452;-76
2023/05/30 14:19:46;;;;;;;0.70;0.10;;;23.10;1.00;;;;;;5055198;28;20486;-76
2023/05/30 14:22:16;;;;;;;0.70;0.20;;;23.00;1.00;;;;;;5054543;28;20499;-76
2023/05/30 14:24:44;;;;;;;0.70;0.20;;;23.10;1.00;;;;;;5055656;28;20540;-75
2023/05/30 14:27:13;;;;;;;2.33;1.80;;;23.20;1.00;;;;;;5054440;28;20517;-76
2023/05/30 14:29:41;;;;;;;0.70;0.20;;;23.30;1.00;;;;;;5053860;28;20455;-75
2023/05/30 14:32:09;;;;;;;0.70;0.20;;;23.40;1.00;;;;;;5053900;28;20439;-75
2023/05/30 14:34:37;;;;;;;1.17;0.53;;;23.50;1.00;;;;;;5053620;28;20440;-76
2023/05/30 14:37:06;;;;;;;0.70;0.30;;;23.50;1.00;;;;;;5054185;28;20972;-73
2023/05/30 14:39:36;;;;;;;1.33;1.23;;;23.40;1.00;;;;;;5056971;28;20990;-75
2023/05/30 14:42:04;;;;;;;44.87;41.70;;;23.50;1.00;;;;;;5055039;28;20444;-76
2023/05/30 14:44:32;;;;;;;0.70;0.20;;;23.70;1.00;;;;;;5054761;28;20455;-75
2023/05/30 14:47:00;;;;;;;1.27;0.77;;;23.80;1.00;;;;;;5052579;28;20505;-75
2023/05/30 14:49:28;;;;;;;0.70;0.20;;;23.70;1.00;;;;;;5055010;28;20445;-78
2023/05/30 14:51:56;;;;;;;0.70;0.17;;;23.80;1.00;;;;;;5053394;28;20462;-75
2023/05/30 14:54:25;;;;;;;1.40;1.30;;;23.60;1.00;;;;;;5054426;28;20531;-76
2023/05/30 14:56:54;;;;;;;0.80;0.20;;;23.60;1.00;;;;;;5053964;28;20518;-75
2023/05/30 14:59:22;;;;;;;4.00;0.73;;;23.70;1.00;;;;;;5054311;28;20448;-76
2023/05/30 15:01:50;;;;;;;1.83;1.40;;;23.60;1.00;;;;;;5057310;28;20447;-76
2023/05/30 15:04:18;;;;;;;0.70;0.23;;;23.60;1.00;;;;;;5057036;28;20454;-75
2023/05/30 15:06:46;;;;;;;0.70;0.20;;;23.60;1.00;;;;;;5043181;28;20979;-75
2023/05/30 15:09:14;;;;;;;1.07;0.87;;;23.80;1.00;;;;;;5061343;28;20505;-75
2023/05/30 15:11:42;;;;;;;0.80;0.60;;;23.80;1.00;;;;;;5064772;28;20444;-75
2023/05/30 15:14:11;;;;;;;0.70;0.20;;;23.80;1.00;;;;;;5036522;28;20461;-75
2023/05/30 15:16:39;;;;;;;0.70;0.10;;;23.80;1.00;;;;;;5043117;28;20547;-76
2023/05/30 15:19:08;;;;;;;0.70;0.10;;;;;;;;;;5077486;28;20458;-73
2023/05/30 15:21:36;;;;;;;1.60;1.50;;;24.00;1.00;;;;;;5076331;28;20459;-74
2023/05/30 15:24:04;;;;;;;0.70;0.20;;;;;;;;;;5063248;28;20506;-75
2023/05/30 15:26:32;;;;;;;0.70;0.13;;;24.00;1.00;;;;;;5057249;28;20484;-75
2023/05/30 15:29:00;;;;;;;0.70;0.10;;;24.00;1.00;;;;;;5057133;28;20812;-76
2023/05/30 15:31:29;;;;;;;0.73;0.27;;;24.10;1.00;;;;;;5057167;28;20456;-78
2023/05/30 15:33:57;;;;;;;0.73;0.40;;;24.10;1.00;;;;;;5057407;28;20440;-75
2023/05/30 15:36:26;;;;;;;0.70;0.20;;;;;;;;;;5055838;28;20464;-76
2023/05/30 15:38:54;;;;;;;0.70;0.10;;;;;;;;;;5056776;28;20603;-77
2023/05/30 15:41:22;;;;;;;0.70;0.30;;;24.20;1.00;;;;;;5056213;28;20449;-77
2023/05/30 15:43:50;;;;;;;0.70;0.20;;;24.20;1.00;;;;;;5036087;28;20445;-75
2023/05/30 15:46:18;;;;;;;0.70;0.20;;;24.20;1.00;;;;;;5035302;28;20486;-76
2023/05/30 15:48:47;;;;;;;0.90;0.50;;;24.40;1.00;;;;;;5035583;28;20442;-76
2023/05/30 15:51:15;;;;;;;0.70;0.20;;;24.40;1.00;;;;;;5036072;28;20530;-76
2023/05/30 15:53:43;;;;;;;0.90;0.33;;;;;;;;;;5055631;28;20860;-76
2023/05/30 15:56:12;;;;;;;0.70;0.20;;;27.00;1.00;;;;;;5053828;28;20458;-76
2023/05/30 15:58:40;;;;;;;0.80;0.50;;;24.30;1.00;;;;;;5053111;28;20489;-73
2023/05/30 16:01:07;;;;;;;0.70;0.20;;;24.50;1.00;;;;;;5052607;28;20936;-77
2023/05/30 16:03:36;;;;;;;0.70;0.20;;;24.40;1.00;;;;;;5046541;28;20466;-77
2023/05/30 16:06:05;;;;;;;2.03;0.20;;;24.60;1.00;;;;;;5041803;28;20524;-77
2023/05/30 16:08:33;;;;;;;1.17;0.37;;;24.70;1.00;;;;;;5054678;28;20464;-77
2023/05/30 16:11:01;;;;;;;1.57;0.67;;;24.80;1.00;;;;;;5053652;28;20711;-77
2023/05/30 16:13:29;;;;;;;0.70;0.20;;;24.70;1.00;;;;;;5053885;28;20485;-76
2023/05/30 16:15:57;;;;;;;0.70;0.10;;;24.90;1.00;;;;;;5055622;28;20535;-77
2023/05/30 16:18:25;;;;;;;0.70;0.20;;;24.90;1.00;;;;;;5055388;28;20493;-76
2023/05/30 16:20:53;;;;;;;1.80;0.77;;;25.10;1.00;;;;;;5055119;28;20895;-78
2023/05/30 16:23:22;;;;;;;0.70;0.20;;;25.00;1.00;;;;;;5054172;28;20941;-76
2023/05/30 16:25:50;;;;;;;0.70;0.20;;;25.10;1.00;;;;;;5055359;28;20585;-75
2023/05/30 16:28:22;;;;;;;0.80;0.20;;;;;;;;;;5055610;28;20756;-76
2023/05/30 16:30:49;;;;;;;0.70;0.20;;;25.30;1.00;;;;;;5057182;28;20457;-76
2023/05/30 16:33:17;;;;;;;0.97;0.87;;;25.40;1.00;;;;;;5054644;28;20504;-76
2023/05/30 16:35:59;;;;;;;1.30;0.50;;;25.50;1.00;;;;;;5055030;28;20458;-76
2023/05/30 16:38:28;;;;;;;1.87;0.50;;;25.60;1.00;;;;;;5054970;28;20429;-75
2023/05/30 16:40:56;;;;;;;2.80;2.40;;;;;;;;;;5054976;28;20516;-76
2023/05/30 16:43:39;;;;;;;0.70;0.17;;;25.50;1.00;;;;;;5055300;28;20445;-76
2023/05/30 16:46:07;;;;;;;0.70;0.20;;;25.60;1.00;;;;;;5054297;28;20486;-76
2023/05/30 16:48:35;;;;;;;0.70;0.30;;;25.60;1.00;;;;;;5054477;28;20446;-74
2023/05/30 16:51:03;;;;;;;0.70;0.20;;;25.60;1.00;;;;;;5054401;28;20537;-79
2023/05/30 16:53:33;;;;;;;1.27;0.50;;;25.10;1.00;;;;;;5053635;28;20430;-76
2023/05/30 16:56:10;;;;;;;0.70;0.10;;;25.00;1.00;;;;;;5055440;28;20465;-75
2023/05/30 16:58:43;;;;;;;0.70;0.20;;;25.10;1.00;;;;;;5055334;28;20866;-75
2023/05/30 17:01:11;;;;;;;0.70;0.20;;;25.20;1.00;;;;;;5055886;28;20948;-78
2023/05/30 17:03:40;;;;;;;0.70;0.10;;;;;;;;;;5034702;28;20446;-77
2023/05/30 17:06:08;;;;;;;0.80;0.30;;;25.50;1.00;;;;;;5034549;28;20545;-75
2023/05/30 17:08:39;;;;;;;30.60;6.23;;;25.50;1.00;;;;;;5034478;28;20505;-78
2023/05/30 17:11:07;;;;;;;0.80;0.37;;;25.60;1.00;;;;;;5035213;28;20431;-75
2023/05/30 17:13:35;;;;;;;0.70;0.10;;;25.70;1.00;;;;;;5040599;28;20987;-76